Latest Coastal Weather Observations for Hamilton Island

IDQ60701

Issued at 5:01 am EST Tuesday 30 May 2017 (issued every 10 minutes, with the page automatically refreshed every 10 minutes)

About coastal observations | Map of coastal stations | Coastal observations for QLD | Marine services | Other Formats
Station Details ID: 033106 Name: HAMILTON ISLAND AIRPORT Lat: -20.37 Lon: 148.95 Height: 58.66 m
Data from the previous 72 hours. | See also: Recent months at Hamilton Island
Date/Time
EST
Temp
°C
Wind Pressure Rain since
9am
mm
Weather Cloud Vis
km
Sea
Height
m
Swell
Dir  Spd
kts
Gust
kts
hPa Trend Height
m
Period
s
Dir
30/05:00am 21.9 SSE 11 14 1018.3 - 0.0 - - 10 - - - -
30/04:30am 21.9 SSE 13 15 1018.0 - 0.0 - - 10 - - - -
30/04:00am 21.8 SSE 11 13 1018.0 - 0.0 - - 10 - - - -
30/03:30am 21.7 SSE 12 14 1018.0 - 0.0 - - 10 - - - -
30/03:00am 21.8 SSE 11 13 1017.9 - 0.0 - - 10 - - - -
30/02:30am 21.8 SSE 13 15 1018.3 - 0.0 - Partly cloudy 10 - - - -
30/02:00am 22.0 SSE 12 14 1018.5 - 0.0 - Partly cloudy 10 - - - -
30/01:30am 22.3 SSE 13 15 1019.1 - 0.0 - Partly cloudy 10 - - - -
30/01:00am 22.1 SE 12 14 1019.0 - 0.0 - - 10 - - - -
30/12:30am 22.0 SE 11 13 1019.1 - 0.0 - - 10 - - - -
30/12:00am 21.9 SE 11 12 1019.0 - 0.0 - - 10 - - - -
 
Date/Time
EST
Temp
°C
Wind Pressure Rain since
9am
mm
Weather Cloud Vis
km
Sea
Height
m
Swell
Dir  Spd
kts
Gust
kts
hPa Trend Height
m
Period
s
Dir
29/11:30pm 21.9 SE 10 11 1019.5 - 0.0 - - 10 - - - -
29/11:00pm 21.8 SE 10 11 1019.2 - 0.0 - - 10 - - - -
29/10:30pm 21.9 SE 11 12 1019.6 - 0.0 - - 10 - - - -
29/10:00pm 22.1 SE 13 14 1019.5 - 0.0 - - 10 - - - -
29/09:30pm 22.1 SSE 13 14 1019.5 - 0.0 - - 10 - - - -
29/09:00pm 22.0 SSE 10 12 1019.5 - 0.0 - - 10 - - - -
29/08:30pm 22.1 SE 11 13 1019.6 - 0.0 - - 10 - - - -
29/08:00pm 22.1 SE 11 13 1019.1 - 0.0 - - 10 - - - -
29/07:30pm 22.1 SE 9 11 1019.0 - 0.0 - - 10 - - - -
29/07:00pm 22.0 SE 10 12 1018.5 - 0.0 - - 10 - - - -
29/06:30pm 22.2 SE 11 13 1018.2 - 0.0 - - 10 - - - -
29/06:00pm 22.1 SE 10 13 1018.1 - 0.0 - - 10 - - - -
29/05:30pm 22.2 SE 12 14 1017.8 - 0.0 - - 10 - - - -
29/05:00pm 22.2 SE 12 14 1017.5 - 0.0 - - 10 - - - -
29/04:30pm 22.3 SSE 13 15 1017.1 - 0.0 - - 10 - - - -
29/04:00pm 22.4 SSE 11 14 1017.3 - 0.0 - - 10 - - - -
29/03:30pm 22.6 SSE 13 15 1017.1 - 0.0 - - 10 - - - -
29/03:00pm 22.7 SSE 11 14 1016.8 - 0.0 - - 10 - - - -
29/02:30pm 23.1 SSE 12 13 1017.2 - 0.0 - - 10 - - - -
29/02:00pm 23.5 SSE 13 15 1017.2 - 0.0 - Partly cloudy 10 - - - -
29/01:30pm 23.3 SSE 14 16 1017.3 - 0.0 - - 10 - - - -
29/01:00pm 23.2 SSE 11 14 1017.8 - 0.0 - - 10 - - - -
29/12:30pm 23.3 SSE 12 14 1018.1 - 0.0 - - 10 - - - -
29/12:00pm 23.4 SSE 12 15 1018.2 - 0.0 - - 10 - - - -
29/11:30am 23.4 SSE 12 16 1019.1 - 0.0 - Partly cloudy 10 - - - -
29/11:00am 23.1 SSE 12 15 1019.4 - 0.0 - Partly cloudy 10 - - - -
29/10:30am 23.1 SSE 12 16 1019.7 - 0.0 - Partly cloudy 10 - - - -
29/10:00am 23.1 SSE 13 17 1019.8 - 0.0 - Partly cloudy 10 - - - -
29/09:30am 22.8 SSE 14 16 1019.6 - 0.0 - Partly cloudy 10 - - - -
29/09:00am 22.6 SSE 13 16 1019.2 - 0.0 - - 10 - - - -
29/08:30am 22.4 SSE 13 16 1019.4 - 0.0 - Partly cloudy 10 - - - -
29/08:00am 22.1 SSE 13 15 1018.9 - 0.0 - Partly cloudy 10 - - - -
29/07:55am 22.0 SSE 13 16 1018.8 - 0.0 - Partly cloudy 10 - - - -
29/07:44am 21.9 SSE 14 16 1018.9 - 0.0 - Partly cloudy 10 - - - -
29/07:30am 21.8 SSE 13 15 1018.6 - 0.0 - Partly cloudy 10 - - - -
29/07:00am 21.6 SSE 13 16 1018.2 - 0.0 - Partly cloudy 10 - - - -
29/06:40am 21.2 SSE 12 15 1018.2 - 0.0 - Partly cloudy 10 - - - -
29/06:30am 21.2 SSE 12 15 1018.1 - 0.0 - Partly cloudy 10 - - - -
29/06:17am 21.3 SSE 13 15 1018.0 - 0.0 - Partly cloudy 10 - - - -
29/06:00am 21.3 SSE 13 15 1017.5 - 0.0 - Partly cloudy 10 - - - -
29/05:30am 21.0 SSE 10 12 1017.4 - 0.0 - Partly cloudy 10 - - - -
29/05:06am 20.9 S 10 13 1017.5 - 0.0 - Partly cloudy 10 - - - -
29/05:00am 20.9 S 10 12 1017.5 - 0.0 - Partly cloudy 10 - - - -
29/04:30am 21.1 S 9 12 1017.4 - 0.0 - Partly cloudy 10 - - - -
29/04:00am 21.2 SSE 9 11 1017.5 - 0.0 - Partly cloudy 10 - - - -
29/03:30am 21.2 S 10 13 1017.8 - 0.0 - Partly cloudy 10 - - - -
29/03:00am 21.1 S 9 11 1017.6 - 0.0 - Mostly cloudy 10 - - - -
29/02:30am 21.3 S 10 11 1017.7 - 0.0 - Partly cloudy 10 - - - -
29/02:13am 21.4 S 9 11 1017.8 - 0.0 - Partly cloudy 10 - - - -
29/02:00am 21.3 S 9 11 1017.8 - 0.0 - Partly cloudy 10 - - - -
29/01:45am 21.2 S 9 11 1017.9 - 0.0 - Partly cloudy 10 - - - -
29/01:30am 21.4 S 9 11 1018.0 - 0.0 - Partly cloudy 10 - - - -
29/01:14am 21.6 S 10 11 1018.1 - 0.0 - Partly cloudy 10 - - - -
29/01:00am 21.8 SSE 8 10 1018.3 - 0.0 - - 10 - - - -
29/12:30am 21.8 SSE 8 9 1018.4 - 0.0 - - 10 - - - -
29/12:00am 21.7 SSE 8 10 1018.3 - 0.0 - - 10 - - - -
 
Date/Time
EST
Temp
°C
Wind Pressure Rain since
9am
mm
Weather Cloud Vis
km
Sea
Height
m
Swell
Dir  Spd
kts
Gust
kts
hPa Trend Height
m
Period
s
Dir
28/11:30pm 21.8 SE 10 11 1018.4 - 0.0 - - 10 - - - -
28/11:00pm 21.8 SE 10 11 1018.5 - 0.0 - - 10 - - - -
28/10:30pm 21.9 SE 9 11 1018.8 - 0.0 - - 10 - - - -
28/10:00pm 21.9 SE 9 11 1018.7 - 0.0 - - 10 - - - -
28/09:30pm 22.0 SE 9 12 1018.6 - 0.0 - - 10 - - - -
28/09:00pm 22.0 SE 10 11 1018.3 - 0.0 - - 10 - - - -
28/08:30pm 21.9 SE 10 12 1018.6 - 0.0 - - 10 - - - -
28/08:00pm 22.0 SE 10 11 1018.2 - 0.0 - - 10 - - - -
28/07:30pm 22.1 SE 10 12 1017.9 - 0.0 - - 10 - - - -
28/07:00pm 22.1 ESE 10 13 1017.5 - 0.0 - - 10 - - - -
28/06:30pm 22.1 SE 11 13 1017.1 - 0.0 - - 10 - - - -
28/06:00pm 22.1 ESE 11 13 1016.6 - 0.0 - - 10 - - - -
28/05:30pm 22.2 ESE 11 13 1016.5 - 0.0 - - 10 - - - -
28/05:00pm 22.5 SE 11 13 1016.5 - 0.0 - - 10 - - - -
28/04:30pm 22.6 ESE 12 14 1016.2 - 0.0 - - 10 - - - -
28/04:00pm 22.9 SE 13 14 1016.1 - 0.0 - - 10 - - - -
28/03:30pm 23.3 ESE 11 13 1016.0 - 0.0 - - 10 - - - -
28/03:00pm 23.3 SSE 12 14 1015.9 - 0.0 - - 10 - - - -
28/02:30pm 23.1 SSE 13 15 1016.3 - 0.0 - Partly cloudy 10 - - - -
28/02:00pm 23.3 SSE 13 15 1016.4 - 0.0 - Partly cloudy 10 - - - -
28/01:30pm 23.3 SSE 13 16 1016.7 - 0.0 - Partly cloudy 10 - - - -
28/01:00pm 23.5 SSE 13 16 1016.8 - 0.0 - Partly cloudy 10 - - - -
28/12:30pm 23.6 SSE 12 15 1017.1 - 0.0 - - 10 - - - -
28/12:00pm 23.5 SSE 11 14 1017.3 - 0.0 - - 10 - - - -
28/11:30am 23.4 SSE 12 14 1017.7 - 0.0 - - 10 - - - -
28/11:00am 23.4 SSE 12 15 1017.9 - 0.0 - - 10 - - - -
28/10:30am 23.3 SSE 12 15 1018.2 - 0.0 - - 10 - - - -
28/10:00am 23.3 SSE 11 15 1018.5 - 0.0 - - 10 - - - -
28/09:30am 23.2 SSE 12 15 1018.4 - 0.0 - - 10 - - - -
28/09:00am 22.8 SSE 12 15 1018.1 - 0.0 - Mostly clear 10 - - - -
28/08:30am 22.7 SSE 11 15 1018.2 - 0.0 - - 10 - - - -
28/08:00am 22.1 SSE 11 14 1018.0 - 0.0 - - 10 - - - -
28/07:30am 21.5 S 11 15 1017.7 - 0.0 - Partly cloudy 10 - - - -
28/07:00am 21.0 S 11 13 1017.5 - 0.0 - - 10 - - - -
28/06:30am 21.0 S 12 15 1017.4 - 0.0 - Partly cloudy 10 - - - -
28/06:00am 21.2 S 12 15 1016.9 - 0.0 - Partly cloudy 10 - - - -
28/05:30am 21.0 S 12 15 1017.0 - 0.0 - - 10 - - - -
28/05:00am 21.2 S 12 15 1016.9 - 0.0 - - 10 - - - -
28/04:30am 21.2 S 11 13 1017.0 - 0.0 - Partly cloudy 10 - - - -
28/04:00am 21.5 SSE 13 15 1017.1 - 0.0 - - 10 - - - -
28/03:30am 21.5 S 11 13 1017.2 - 0.0 - - 10 - - - -
28/03:00am 21.3 S 12 15 1017.1 - 0.0 - Cloudy 10 - - - -
28/02:30am 21.4 S 13 15 1017.7 - 0.0 - Partly cloudy 10 - - - -
28/02:00am 22.0 S 9 12 1018.0 - 0.0 - Partly cloudy 10 - - - -
28/01:30am 22.1 SE 10 12 1018.2 - 0.0 - - 10 - - - -
28/01:00am 22.1 SE 11 13 1018.4 - 0.0 - - 10 - - - -
28/12:30am 22.0 SE 11 13 1018.5 - 0.0 - - 10 - - - -
28/12:00am 22.2 SE 11 12 1018.5 - 0.0 - - 10 - - - -
 
Date/Time
EST
Temp
°C
Wind Pressure Rain since
9am
mm
Weather Cloud Vis
km
Sea
Height
m
Swell
Dir  Spd
kts
Gust
kts
hPa Trend Height
m
Period
s
Dir
27/11:30pm 22.1 SE 11 12 1018.8 - 0.0 - Partly cloudy 10 - - - -
27/11:00pm 22.2 SE 11 14 1018.7 - 0.0 - Partly cloudy 10 - - - -
27/10:30pm 22.3 SE 11 13 1018.8 - 0.0 - Partly cloudy 10 - - - -
27/10:00pm 22.2 SE 11 13 1018.8 - 0.0 - Partly cloudy 10 - - - -
27/09:30pm 22.2 SE 11 13 1018.8 - 0.0 - - 10 - - - -
27/09:00pm 22.2 SE 10 12 1018.5 - 0.0 - - 10 - - - -
27/08:30pm 22.2 SE 11 12 1018.6 - 0.0 - - 10 - - - -
27/08:00pm 22.4 SE 11 13 1018.5 - 0.0 - Partly cloudy 10 - - - -
27/07:30pm 22.2 SE 11 13 1018.3 - 0.0 - - 10 - - - -
27/07:00pm 22.5 SE 11 14 1017.8 - 0.0 - - 10 - - - -
27/06:30pm 22.3 SE 11 12 1017.6 - 0.0 - Partly cloudy 10 - - - -
27/06:00pm 22.3 SE 12 14 1017.1 - 0.0 - Mostly clear 10 - - - -
27/05:30pm 22.6 SE 13 14 1017.0 - 0.0 - - 10 - - - -
27/05:00pm 22.9 SE 14 16 1016.8 - 0.0 - - 10 - - - -
27/04:30pm 23.2 ESE 13 15 1016.7 - 0.0 - - 10 - - - -
27/04:00pm 23.4 ESE 14 17 1016.3 - 0.0 - - 10 - - - -
27/03:30pm 23.6 ESE 14 16 1016.2 - 0.0 - Partly cloudy 10 - - - -
27/03:00pm 23.8 SE 15 17 1016.1 - 0.0 - Partly cloudy 10 - - - -
27/02:30pm 23.9 SE 17 19 1016.4 - 0.0 - Partly cloudy 10 - - - -
27/02:00pm 24.7 SE 15 17 1016.5 - 0.0 - Partly cloudy 10 - - - -
27/01:30pm 23.4 SSE 13 15 1016.7 - 0.0 - - 10 - - - -
27/01:00pm 24.1 SSE 13 16 1017.0 - 0.0 - Partly cloudy 10 - - - -
27/12:30pm 23.5 SSE 12 15 1017.7 - 0.0 - Partly cloudy 10 - - - -
27/12:00pm 23.5 SSE 12 15 1018.1 - 0.0 - Partly cloudy 10 - - - -
27/11:30am 23.3 SSE 11 16 1018.3 - 0.0 - Partly cloudy 10 - - - -
27/11:00am 23.3 SSE 11 15 1018.8 - 0.0 - Partly cloudy 10 - - - -
27/10:30am 23.3 SSE 13 15 1019.1 - 0.0 - Partly cloudy 10 - - - -
27/10:00am 23.0 SSE 13 16 1019.2 - 0.0 - Partly cloudy 10 - - - -
27/09:30am 23.0 SSE 12 15 1019.1 - 0.0 - - 10 - - - -
27/09:00am 22.8 SSE 13 15 1018.7 - 0.0 - - 10 - - - -
27/08:30am 22.3 SSE 14 17 1018.6 - 0.0 - - 10 - - - -
27/08:00am 22.2 SSE 14 16 1018.7 - 0.0 - - 10 - - - -
27/07:30am 21.8 SSE 14 17 1018.6 - 0.0 - - 10 - - - -
27/07:00am 21.3 SSE 14 18 1018.0 - 0.0 - - 10 - - - -
27/06:30am 20.9 SSE 14 17 1017.8 - 0.0 - Partly cloudy 10 - - - -
27/06:00am 20.9 SSE 15 18 1017.4 - 0.0 - Mostly clear 10 - - - -
27/05:30am 21.0 SSE 12 16 1017.5 - 0.0 - Partly cloudy 10 - - - -
27/05:22am 21.0 S 13 17 1017.5 - 0.0 - Partly cloudy 10 - - - -

Other Formats:

Comma delimited format used in spreadsheet applications
http://www.bom.gov.au/fwo/IDQ60701/IDQ60701.94368.axf

JavaScript Object Notation format (JSON) in row-major order
http://www.bom.gov.au/fwo/IDQ60701/IDQ60701.94368.json